createdAt,value
2023-10-18T00:23:35.593Z,71.33
2023-10-18T00:26:55.447Z,71.15
2023-10-18T00:29:46.981Z,71.15
2023-10-18T00:32:38.546Z,71.98
2023-10-18T00:35:40.742Z,71.38
2023-10-18T00:38:38.879Z,71.60
2023-10-18T00:41:47.345Z,71.62
2023-10-18T00:44:36.621Z,71.65
2023-10-18T00:48:08.625Z,71.58
2023-10-18T00:51:13.269Z,71.56
2023-10-18T00:54:16.483Z,71.76
2023-10-18T00:57:14.603Z,71.11
2023-10-18T01:00:51.262Z,71.21
2023-10-18T01:03:53.945Z,71.21
2023-10-18T01:07:02.815Z,70.98
2023-10-18T01:10:09.266Z,70.86
2023-10-18T01:13:10.257Z,70.68
2023-10-18T01:16:22.337Z,70.59
2023-10-18T01:19:29.194Z,70.64
2023-10-18T01:22:30.064Z,70.32
2023-10-18T01:25:29.787Z,70.29
2023-10-18T01:28:30.442Z,69.97
2023-10-18T01:31:41.934Z,70.10
2023-10-18T01:34:45.447Z,70.17
2023-10-18T01:37:47.877Z,69.48
2023-10-18T01:41:11.250Z,69.36
2023-10-18T01:44:42.092Z,69.37
2023-10-18T01:47:53.418Z,69.33
2023-10-18T01:50:53.465Z,69.28
2023-10-18T01:53:45.289Z,69.32
2023-10-18T01:56:58.082Z,69.21
2023-10-18T01:59:51.401Z,69.09
2023-10-18T02:02:58.593Z,69.08
2023-10-18T02:06:09.268Z,69.15
2023-10-18T02:09:18.492Z,69.23
2023-10-18T02:12:21.532Z,69.31
2023-10-18T02:15:16.225Z,69.67
2023-10-18T02:18:22.302Z,69.62
2023-10-18T02:21:30.786Z,69.57
2023-10-18T02:24:27.221Z,69.43
2023-10-18T02:27:40.850Z,69.90
2023-10-18T02:31:11.305Z,69.66
2023-10-18T02:34:29.838Z,69.16
2023-10-18T02:37:46.693Z,69.49
2023-10-18T02:40:45.556Z,68.91
2023-10-18T02:43:43.205Z,69.22
2023-10-18T02:46:38.418Z,69.15
2023-10-18T02:49:43.993Z,69.32
2023-10-18T02:52:48.416Z,68.88
2023-10-18T02:56:08.481Z,69.15
2023-10-18T02:59:18.981Z,68.99
2023-10-18T03:02:27.223Z,68.98
2023-10-18T03:05:22.424Z,68.81
2023-10-18T03:08:27.450Z,68.53
2023-10-18T03:11:24.810Z,68.50
2023-10-18T03:14:25.961Z,68.70
2023-10-18T03:18:04.437Z,69.01
2023-10-18T03:21:28.187Z,69.18
2023-10-18T03:24:24.046Z,69.39
2023-10-18T03:27:45.787Z,69.47
2023-10-18T03:30:49.181Z,69.57
2023-10-18T03:34:12.530Z,69.74
2023-10-18T03:37:08.482Z,70.01
2023-10-18T03:40:23.636Z,70.01
2023-10-18T03:43:43.149Z,70.33
2023-10-18T03:46:56.256Z,70.36
2023-10-18T03:50:30.058Z,69.78
2023-10-18T03:53:22.285Z,69.45
2023-10-18T03:56:16.478Z,69.28
2023-10-18T03:59:47.211Z,69.37
2023-10-18T04:02:42.289Z,69.25
2023-10-18T04:05:47.196Z,69.47
2023-10-18T04:08:41.392Z,69.65
2023-10-18T04:11:51.173Z,69.75
2023-10-18T04:14:40.260Z,69.55
2023-10-18T04:17:41.468Z,69.66
2023-10-18T04:20:51.637Z,69.72
2023-10-18T04:23:52.215Z,69.67
2023-10-18T04:26:45.389Z,69.32
2023-10-18T04:29:46.197Z,69.18
2023-10-18T04:32:47.658Z,68.78
2023-10-18T04:35:57.022Z,68.60
2023-10-18T04:39:07.525Z,69.00
2023-10-18T04:42:06.426Z,68.76
2023-10-18T04:45:25.270Z,69.00
2023-10-18T04:49:00.281Z,69.01
2023-10-18T04:52:30.007Z,68.90
2023-10-18T04:55:27.311Z,68.88
2023-10-18T04:58:21.641Z,69.01
2023-10-18T05:01:24.329Z,69.35
2023-10-18T05:04:42.426Z,69.11
2023-10-18T05:08:10.659Z,69.80
2023-10-18T05:11:23.212Z,69.74
2023-10-18T05:14:52.559Z,69.47
2023-10-18T05:17:56.350Z,70.08
2023-10-18T05:20:57.304Z,69.89
2023-10-18T05:23:48.251Z,70.32
2023-10-18T05:26:53.837Z,70.97
2023-10-18T05:29:59.367Z,71.70
2023-10-18T05:33:11.221Z,71.84
2023-10-18T05:36:18.120Z,71.88
2023-10-18T05:39:32.304Z,72.23
2023-10-18T05:42:22.919Z,72.67
2023-10-18T05:45:30.846Z,72.39
2023-10-18T05:48:46.548Z,72.24
2023-10-18T05:51:55.341Z,72.33
2023-10-18T05:54:54.876Z,72.67
2023-10-18T05:57:52.526Z,73.13
2023-10-18T06:00:54.672Z,72.98
2023-10-18T06:04:01.453Z,72.70
2023-10-18T06:07:12.641Z,72.54
2023-10-18T06:10:23.873Z,73.55
2023-10-18T06:13:22.386Z,73.32
2023-10-18T06:16:22.112Z,73.60
2023-10-18T06:19:16.438Z,73.86
2023-10-18T06:22:53.818Z,73.73
2023-10-18T06:25:56.432Z,74.71
2023-10-18T06:28:50.930Z,74.68
2023-10-18T06:31:45.583Z,75.23
2023-10-18T06:34:47.183Z,75.36
2023-10-18T06:37:45.511Z,75.09
2023-10-18T06:41:16.258Z,75.20
2023-10-18T06:44:12.600Z,75.76
2023-10-18T06:47:17.273Z,76.07
2023-10-18T06:50:28.330Z,76.22
2023-10-18T06:53:24.285Z,76.36
2023-10-18T06:56:56.306Z,76.72
2023-10-18T06:59:51.978Z,76.56
2023-10-18T07:02:55.043Z,76.84
2023-10-18T07:06:33.717Z,76.79
2023-10-18T07:09:31.377Z,76.86
2023-10-18T07:12:31.668Z,76.81
2023-10-18T07:15:37.694Z,76.94
2023-10-18T07:19:15.200Z,77.50
2023-10-18T07:22:25.397Z,77.47
2023-10-18T07:25:54.672Z,77.07
2023-10-18T07:29:15.231Z,77.20
2023-10-18T07:32:22.172Z,77.38
2023-10-18T07:35:39.341Z,77.37
2023-10-18T07:38:35.880Z,77.01
2023-10-18T07:41:34.094Z,76.83
2023-10-18T07:44:37.733Z,77.18
2023-10-18T07:47:47.439Z,76.55
2023-10-18T07:50:51.986Z,77.04
2023-10-18T07:53:54.062Z,77.23
2023-10-18T07:57:19.889Z,77.25
2023-10-18T08:00:36.974Z,77.63
2023-10-18T08:04:08.540Z,78.18
2023-10-18T08:07:09.021Z,78.31
2023-10-18T08:10:20.817Z,78.70
2023-10-18T08:13:27.270Z,78.84
2023-10-18T08:16:46.877Z,78.87
2023-10-18T08:19:58.236Z,79.52
2023-10-18T08:23:02.216Z,79.88
2023-10-18T08:26:16.861Z,79.68
2023-10-18T08:29:13.867Z,80.21
2023-10-18T08:35:50.920Z,80.59
2023-10-18T08:38:48.700Z,80.64
2023-10-18T08:41:48.410Z,81.03
2023-10-18T08:45:00.166Z,80.75
2023-10-18T08:48:02.228Z,81.16
2023-10-18T08:50:58.226Z,81.29
2023-10-18T08:54:07.374Z,81.67
2023-10-18T08:57:15.384Z,81.57
2023-10-18T09:00:37.854Z,82.22
2023-10-18T09:03:34.268Z,82.46
2023-10-18T09:06:36.655Z,82.14
2023-10-18T09:09:37.045Z,81.80
2023-10-18T09:12:50.585Z,81.78
2023-10-18T09:16:11.501Z,81.35
2023-10-18T09:19:11.956Z,81.61
2023-10-18T09:22:03.022Z,80.51
2023-10-18T09:24:52.711Z,79.28
2023-10-18T09:27:41.136Z,78.11
2023-10-18T09:30:51.562Z,77.05
2023-10-18T09:34:02.407Z,76.13
2023-10-18T09:37:13.301Z,68.04
2023-10-18T09:40:08.326Z,61.47
2023-10-18T09:43:03.939Z,63.35
2023-10-18T09:46:04.124Z,60.96
2023-10-18T09:49:16.255Z,59.66
2023-10-18T09:52:27.305Z,61.48
2023-10-18T09:55:38.442Z,60.58
2023-10-18T09:58:44.587Z,60.38
2023-10-18T10:01:57.718Z,57.82
2023-10-18T10:04:49.146Z,56.38
2023-10-18T10:07:50.719Z,56.10
2023-10-18T10:10:48.312Z,58.28
2023-10-18T10:13:46.779Z,57.31
2023-10-18T10:16:49.524Z,57.41
2023-10-18T10:20:19.679Z,56.25
2023-10-18T10:23:21.164Z,57.32
2023-10-18T10:26:32.588Z,57.30
2023-10-18T10:29:31.956Z,57.85
2023-10-18T10:32:50.204Z,56.56
2023-10-18T10:36:08.549Z,55.89
2023-10-18T10:39:45.073Z,54.48
2023-10-18T10:43:37.507Z,54.05
2023-10-18T10:46:39.331Z,53.87
2023-10-18T10:49:59.565Z,54.61
2023-10-18T10:53:10.327Z,55.21
2023-10-18T10:59:35.552Z,55.05
2023-10-18T11:03:15.152Z,55.30
2023-10-18T11:06:31.154Z,54.56
2023-10-18T11:09:47.739Z,54.88
2023-10-18T11:13:23.510Z,53.52
2023-10-18T11:16:20.452Z,53.95
2023-10-18T11:19:26.296Z,52.91
2023-10-18T11:22:31.463Z,53.36
2023-10-18T11:25:55.028Z,53.52
2023-10-18T11:28:44.112Z,52.65
2023-10-18T11:31:50.317Z,53.77
2023-10-18T11:34:49.529Z,52.92
2023-10-18T11:40:56.368Z,53.65
2023-10-18T11:43:58.148Z,54.33
2023-10-18T11:47:38.694Z,53.23
2023-10-18T11:51:17.263Z,53.10
2023-10-18T11:54:17.738Z,54.62
2023-10-18T11:57:47.399Z,53.50
2023-10-18T12:00:44.173Z,53.91
2023-10-18T12:07:11.991Z,53.89
2023-10-18T12:10:19.437Z,53.01
2023-10-18T12:13:24.106Z,52.65
2023-10-18T12:16:18.883Z,52.47
2023-10-18T12:19:23.313Z,53.92
2023-10-18T12:22:27.336Z,52.88
2023-10-18T12:25:25.664Z,53.47
2023-10-18T12:28:29.116Z,54.00
2023-10-18T12:31:44.826Z,52.55
2023-10-18T12:34:57.001Z,52.57
2023-10-18T12:38:03.712Z,53.39
2023-10-18T12:40:53.698Z,53.19
2023-10-18T12:43:56.484Z,52.45
2023-10-18T12:46:48.382Z,52.77
2023-10-18T12:49:48.999Z,52.53
2023-10-18T12:53:16.354Z,52.95
2023-10-18T12:56:37.323Z,51.93
2023-10-18T12:59:42.165Z,51.47
2023-10-18T13:03:21.411Z,52.00
2023-10-18T13:06:22.361Z,52.58
2023-10-18T13:09:18.202Z,52.63
2023-10-18T13:12:36.458Z,52.50
2023-10-18T13:15:30.126Z,52.06
2023-10-18T13:18:20.572Z,52.36
2023-10-18T13:21:20.491Z,53.34
2023-10-18T13:24:35.389Z,52.52
2023-10-18T13:27:57.330Z,51.74
2023-10-18T13:30:53.425Z,52.01
2023-10-18T13:33:42.381Z,52.27
2023-10-18T13:36:59.882Z,52.46
2023-10-18T13:40:08.297Z,52.16
2023-10-18T13:43:35.821Z,52.15
2023-10-18T13:50:21.147Z,52.96
2023-10-18T13:53:33.848Z,52.29
2023-10-18T13:56:39.846Z,53.22
2023-10-18T13:59:31.525Z,53.25
2023-10-18T14:02:32.622Z,53.58
2023-10-18T14:05:29.985Z,53.77
2023-10-18T14:08:24.210Z,53.41
2023-10-18T14:11:39.528Z,53.33
2023-10-18T14:14:41.843Z,53.30
2023-10-18T14:17:48.649Z,54.26
2023-10-18T14:20:47.314Z,53.99
2023-10-18T14:23:35.730Z,54.59
2023-10-18T14:26:36.956Z,53.70
2023-10-18T14:29:46.144Z,53.49
2023-10-18T14:32:37.727Z,54.52
2023-10-18T14:35:51.170Z,54.99
2023-10-18T14:39:00.311Z,56.15
2023-10-18T14:41:56.358Z,57.71
2023-10-18T14:45:07.855Z,56.70
2023-10-18T14:48:05.439Z,56.92
2023-10-18T14:51:12.751Z,56.60
2023-10-18T14:54:07.640Z,57.04
2023-10-18T14:57:07.008Z,57.66
2023-10-18T15:00:01.871Z,58.16
2023-10-18T15:03:04.364Z,58.86
2023-10-18T15:06:10.228Z,59.16
2023-10-18T15:09:22.266Z,59.62
2023-10-18T15:12:20.144Z,60.03
2023-10-18T15:15:16.228Z,60.12
2023-10-18T15:18:23.455Z,60.30
2023-10-18T15:21:25.265Z,60.58
2023-10-18T15:24:30.981Z,61.22
2023-10-18T15:27:37.616Z,61.49
2023-10-18T15:30:32.279Z,61.70
2023-10-18T15:33:25.761Z,61.70
2023-10-18T15:36:32.546Z,61.96
2023-10-18T15:39:27.300Z,62.32
2023-10-18T15:42:29.272Z,62.41
2023-10-18T15:45:55.511Z,62.30
2023-10-18T15:48:56.744Z,62.59
2023-10-18T15:51:57.394Z,62.72
2023-10-18T15:55:03.203Z,63.14
2023-10-18T15:57:54.294Z,63.44
2023-10-18T16:00:57.359Z,63.91
2023-10-18T16:03:56.752Z,64.23
2023-10-18T16:06:53.409Z,64.64
2023-10-18T16:10:16.288Z,64.70
2023-10-18T16:13:34.707Z,65.44
2023-10-18T16:16:32.283Z,66.04
2023-10-18T16:19:45.945Z,66.55
2023-10-18T16:22:40.428Z,66.38
2023-10-18T16:26:43.425Z,66.47
2023-10-18T16:30:05.669Z,66.63
2023-10-18T16:33:14.175Z,67.03
2023-10-18T16:36:06.887Z,66.82
2023-10-18T16:39:11.727Z,67.11
2023-10-18T16:42:23.068Z,66.89
2023-10-18T16:45:33.697Z,67.04
2023-10-18T16:48:54.958Z,66.19
2023-10-18T16:52:36.628Z,66.37
2023-10-18T16:55:37.599Z,66.41
2023-10-18T16:58:56.756Z,66.95
2023-10-18T17:02:10.209Z,67.38
2023-10-18T17:05:17.107Z,67.59
2023-10-18T17:08:24.549Z,67.16
2023-10-18T17:11:32.043Z,66.85
2023-10-18T17:14:56.830Z,67.55
2023-10-18T17:17:50.820Z,67.75
2023-10-18T17:24:39.114Z,67.71
2023-10-18T17:28:23.799Z,67.45
2023-10-18T17:31:42.557Z,67.12
2023-10-18T17:34:55.316Z,66.62
2023-10-18T17:37:52.536Z,66.63
2023-10-18T17:40:46.258Z,66.43
2023-10-18T17:43:48.579Z,66.06
2023-10-18T17:46:50.289Z,66.46
2023-10-18T17:49:55.372Z,65.69
2023-10-18T17:52:57.146Z,65.20
2023-10-18T17:56:18.592Z,65.09
2023-10-18T17:59:23.331Z,65.08
2023-10-18T18:02:27.656Z,65.06
2023-10-18T18:05:55.555Z,64.70
2023-10-18T18:08:56.157Z,65.19
2023-10-18T18:11:55.538Z,65.40
2023-10-18T18:15:15.630Z,65.25
2023-10-18T18:18:41.305Z,65.57
2023-10-18T18:22:03.903Z,65.72
2023-10-18T18:25:05.424Z,65.71
2023-10-18T18:28:06.289Z,66.07
2023-10-18T18:31:10.321Z,66.40
2023-10-18T18:34:43.211Z,66.67
2023-10-18T18:38:02.353Z,66.93
2023-10-18T18:40:55.589Z,66.53
2023-10-18T18:44:00.319Z,66.87
2023-10-18T18:47:01.276Z,66.96
2023-10-18T18:50:10.091Z,67.00
2023-10-18T18:53:11.900Z,66.51
2023-10-18T18:56:23.846Z,65.93
2023-10-18T18:59:20.814Z,65.93
2023-10-18T19:05:57.323Z,66.14
2023-10-18T19:09:01.486Z,66.32
2023-10-18T19:11:55.304Z,66.27
2023-10-18T19:15:01.191Z,65.99
2023-10-18T19:17:59.775Z,66.08
2023-10-18T19:20:52.210Z,66.38
2023-10-18T19:23:50.395Z,66.44
2023-10-18T19:26:54.710Z,67.34
2023-10-18T19:30:02.516Z,67.15
2023-10-18T19:33:05.256Z,66.93
2023-10-18T19:36:15.974Z,67.21
2023-10-18T19:39:26.435Z,67.08
2023-10-18T19:42:32.700Z,66.99
2023-10-18T19:45:32.509Z,66.54
2023-10-18T19:48:36.842Z,65.89
2023-10-18T19:51:41.431Z,65.55
2023-10-18T19:55:12.831Z,66.06
2023-10-18T19:58:14.062Z,65.85
2023-10-18T20:01:05.920Z,65.89
2023-10-18T20:04:10.498Z,65.37
2023-10-18T20:07:39.849Z,65.62
2023-10-18T20:10:32.657Z,65.58
2023-10-18T20:13:44.573Z,66.30
2023-10-18T20:16:50.281Z,66.68
2023-10-18T20:20:02.810Z,66.85
2023-10-18T20:22:59.971Z,66.42
2023-10-18T20:26:31.267Z,66.37
2023-10-18T20:29:39.640Z,66.37
2023-10-18T20:32:51.726Z,66.22
2023-10-18T20:35:46.661Z,65.68
2023-10-18T20:39:00.561Z,65.42
2023-10-18T20:41:50.820Z,66.01
2023-10-18T20:45:09.034Z,65.97
2023-10-18T20:47:56.805Z,65.89
2023-10-18T20:51:21.506Z,65.83
2023-10-18T20:54:19.153Z,65.65
2023-10-18T20:57:18.562Z,65.71
2023-10-18T21:00:20.963Z,65.36
2023-10-18T21:03:21.836Z,65.54
2023-10-18T21:06:19.235Z,65.35
2023-10-18T21:09:19.865Z,65.23
2023-10-18T21:12:20.099Z,65.68
2023-10-18T21:15:25.145Z,65.60
2023-10-18T21:18:38.089Z,65.34
2023-10-18T21:22:18.326Z,65.50
2023-10-18T21:25:38.252Z,65.99
2023-10-18T21:28:35.356Z,66.20
2023-10-18T21:31:30.252Z,66.17
2023-10-18T21:34:45.855Z,65.71
2023-10-18T21:38:03.598Z,66.05
2023-10-18T21:41:05.927Z,66.58
2023-10-18T21:44:00.757Z,66.88
2023-10-18T21:46:53.157Z,67.12
2023-10-18T21:49:52.770Z,67.14
2023-10-18T21:52:50.339Z,67.20
2023-10-18T21:55:49.684Z,67.44
2023-10-18T21:58:45.301Z,67.39
2023-10-18T22:01:49.001Z,67.41
2023-10-18T22:04:44.810Z,66.88
2023-10-18T22:07:35.399Z,67.00
2023-10-18T22:10:53.626Z,66.86
2023-10-18T22:13:41.434Z,67.02
2023-10-18T22:16:30.157Z,66.86
2023-10-18T22:19:28.849Z,67.12
2023-10-18T22:22:38.879Z,66.88
2023-10-18T22:25:49.522Z,67.02
2023-10-18T22:28:55.396Z,66.32
2023-10-18T22:32:10.697Z,66.05
2023-10-18T22:35:22.307Z,65.83
2023-10-18T22:38:13.849Z,65.91
2023-10-18T22:41:14.770Z,66.14
2023-10-18T22:44:11.929Z,66.26
2023-10-18T22:47:21.388Z,66.41
2023-10-18T22:50:37.728Z,66.77
2023-10-18T22:53:50.354Z,66.88
2023-10-18T22:56:58.912Z,67.51
2023-10-18T23:00:04.937Z,68.05
2023-10-18T23:03:12.268Z,68.36
2023-10-18T23:06:12.243Z,68.52
2023-10-18T23:09:22.949Z,68.68
2023-10-18T23:12:24.326Z,68.64
2023-10-18T23:15:24.111Z,68.79
2023-10-18T23:18:22.228Z,68.58
2023-10-18T23:21:31.282Z,68.23
2023-10-18T23:24:23.304Z,68.33
2023-10-18T23:27:32.928Z,68.45
2023-10-18T23:30:41.366Z,68.37
2023-10-18T23:33:49.902Z,68.93
2023-10-18T23:36:42.006Z,68.78
2023-10-18T23:39:41.046Z,68.90
2023-10-18T23:42:46.346Z,69.14
2023-10-18T23:46:04.713Z,68.91
2023-10-18T23:49:23.582Z,69.09
2023-10-18T23:52:50.043Z,69.66
2023-10-18T23:59:43.237Z,69.90
